Hlavní strana
METAR-TAF:

METAR-TAF

Letiště :

Umeå, Švédsko

zeměpisná šířka: 63-48N, zeměpisná délka: 020-17E, výška: 7 m

Aktuální stav počasí

Zpráva byla vytvořena před 35 minutami, v 07:20 UTC
Severoseverozápadní vítr 4 kt
Teplota -6°C
Vlhkost vzduchu 93%
Tlak 1018 hPa
Viditelnost 10 km a více
Žádná oblačnost pod 1500 m, nevyskytují se cumulonimby.

METAR: ESNU 270720Z 34004KT CAVOK M06/M07 Q1018 R14/75//38

Čas: 08:55 (07:55 UTC)

Předpověď počasí

Zpráva byla vytvořena před 2 hodinami a 25 minutami, v 05:30 UTC
Předpověď platná od 27 v 06 UTC do 27 v 15 UTC
Severoseverozápadní vítr 5 kt
Viditelnost 10 km a více
Žádná oblačnost pod 1500 m, nevyskytují se cumulonimby.

TAF: ESNU 270530Z 2706/2715 33005KT CAVOK

Stav a předpovědi počasí z více než 4 000 letišť (zprávy METAR a TAF).

Červené a žluté tečky na mapě představují dostupné meteorologické stanice.

Když kurzor umístíte na tečku, zobrazí se název stanice.

Pak kliknutím zobrazíte stav a předpověď počasí.

Chcete-li změnit mapu, kliknutím na zelené tlačítko se znaménkem +mapu přiblížíte, kliknutím na zelené tlačítko se znaménkem – mapu oddálíte a kliknutím na zelené šipky přejdete na sousední mapy.


METAR-TAF: